createdAt,value
2023-02-14T00:00:49.851Z,99.90
2023-02-14T00:03:18.175Z,99.90
2023-02-14T00:05:45.244Z,99.90
2023-02-14T00:08:14.230Z,99.90
2023-02-14T00:10:41.454Z,99.90
2023-02-14T00:13:08.567Z,99.90
2023-02-14T00:15:35.744Z,99.90
2023-02-14T00:18:03.726Z,99.90
2023-02-14T00:20:31.027Z,99.90
2023-02-14T00:22:58.329Z,99.90
2023-02-14T00:25:25.685Z,99.90
2023-02-14T00:27:54.493Z,99.90
2023-02-14T00:30:23.073Z,99.90
2023-02-14T00:32:50.275Z,99.90
2023-02-14T00:35:17.629Z,99.90
2023-02-14T00:37:46.121Z,99.90
2023-02-14T00:40:14.018Z,99.90
2023-02-14T00:42:41.114Z,99.90
2023-02-14T00:45:09.619Z,99.90
2023-02-14T00:47:36.811Z,99.90
2023-02-14T00:50:05.205Z,99.90
2023-02-14T00:52:32.559Z,99.90
2023-02-14T00:54:59.707Z,99.90
2023-02-14T00:57:27.279Z,99.90
2023-02-14T00:59:54.418Z,99.90
2023-02-14T01:02:21.756Z,99.90
2023-02-14T01:04:48.915Z,99.90
2023-02-14T01:07:16.247Z,99.90
2023-02-14T01:09:43.530Z,99.90
2023-02-14T01:12:10.766Z,99.90
2023-02-14T01:14:38.462Z,99.90
2023-02-14T01:17:05.655Z,99.90
2023-02-14T01:19:32.784Z,99.90
2023-02-14T01:22:00.571Z,99.90
2023-02-14T01:24:27.768Z,99.90
2023-02-14T01:26:54.829Z,99.90
2023-02-14T01:29:21.954Z,99.90
2023-02-14T01:31:49.454Z,99.90
2023-02-14T01:34:17.715Z,99.90
2023-02-14T01:36:47.099Z,99.90
2023-02-14T01:39:15.160Z,99.90
2023-02-14T01:41:48.833Z,99.90
2023-02-14T01:44:19.628Z,99.90
2023-02-14T01:46:47.165Z,99.90
2023-02-14T01:49:14.612Z,99.90
2023-02-14T01:51:44.888Z,99.90
2023-02-14T01:54:13.436Z,99.90
2023-02-14T01:56:45.913Z,99.90
2023-02-14T01:59:15.404Z,99.90
2023-02-14T02:01:44.427Z,99.90
2023-02-14T02:04:16.672Z,99.90
2023-02-14T02:06:49.721Z,99.90
2023-02-14T02:09:19.162Z,99.90
2023-02-14T02:11:46.573Z,99.90
2023-02-14T02:14:20.652Z,99.90
2023-02-14T02:17:20.656Z,99.90
2023-02-14T02:19:51.610Z,99.90
2023-02-14T02:22:21.700Z,99.90
2023-02-14T02:24:56.904Z,99.90
2023-02-14T02:27:47.519Z,99.90
2023-02-14T02:30:17.924Z,99.90
2023-02-14T02:33:08.063Z,99.90
2023-02-14T02:35:35.464Z,99.90
2023-02-14T02:38:24.330Z,99.90
2023-02-14T02:40:54.730Z,99.90
2023-02-14T02:43:25.018Z,99.90
2023-02-14T02:46:23.125Z,99.90
2023-02-14T02:48:50.272Z,99.90
2023-02-14T02:51:42.799Z,99.90
2023-02-14T02:54:15.162Z,99.90
2023-02-14T02:56:56.165Z,99.90
2023-02-14T02:59:29.263Z,99.90
2023-02-14T03:02:02.153Z,99.90
2023-02-14T03:05:08.464Z,99.90
2023-02-14T03:07:36.713Z,99.90
2023-02-14T03:10:08.003Z,99.90
2023-02-14T03:12:35.261Z,99.90
2023-02-14T03:15:02.360Z,99.90
2023-02-14T03:17:29.737Z,99.90
2023-02-14T03:20:18.113Z,99.90
2023-02-14T03:22:48.658Z,99.90
2023-02-14T03:25:35.120Z,99.90
2023-02-14T03:28:08.551Z,99.90
2023-02-14T03:30:51.341Z,99.90
2023-02-14T03:33:22.227Z,99.90
2023-02-14T03:36:09.734Z,99.90
2023-02-14T03:38:42.280Z,99.90
2023-02-14T03:41:11.920Z,99.90
2023-02-14T03:43:44.958Z,99.90
2023-02-14T03:46:15.330Z,99.90
2023-02-14T03:48:42.917Z,99.90
2023-02-14T03:51:12.165Z,99.90
2023-02-14T03:53:42.996Z,99.90
2023-02-14T03:56:15.571Z,99.90
2023-02-14T03:58:48.361Z,99.90
2023-02-14T04:01:43.083Z,99.90
2023-02-14T04:04:10.774Z,99.90
2023-02-14T04:06:37.903Z,99.90
2023-02-14T04:09:05.073Z,99.90
2023-02-14T04:11:35.292Z,99.90
2023-02-14T04:14:03.164Z,99.90
2023-02-14T04:16:30.579Z,99.90
2023-02-14T04:19:20.414Z,99.90
2023-02-14T04:21:48.901Z,99.90
2023-02-14T04:24:16.788Z,99.90
2023-02-14T04:26:54.329Z,99.90
2023-02-14T04:29:21.605Z,99.90
2023-02-14T04:31:49.112Z,99.90
2023-02-14T04:34:16.264Z,99.90
2023-02-14T04:36:44.625Z,99.90
2023-02-14T04:39:11.736Z,99.90
2023-02-14T04:41:39.084Z,99.90
2023-02-14T04:44:13.427Z,99.90
2023-02-14T04:46:43.615Z,99.90
2023-02-14T04:49:10.904Z,99.90
2023-02-14T04:51:37.988Z,99.90
2023-02-14T04:54:05.194Z,99.90
2023-02-14T04:56:32.570Z,99.90
2023-02-14T04:58:59.679Z,99.90
2023-02-14T05:01:26.925Z,99.90
2023-02-14T05:03:54.124Z,99.90
2023-02-14T05:06:21.380Z,99.90
2023-02-14T05:08:48.635Z,99.90
2023-02-14T05:11:15.697Z,99.90
2023-02-14T05:13:43.207Z,99.90
2023-02-14T05:16:10.439Z,99.90
2023-02-14T05:18:37.925Z,99.90
2023-02-14T05:21:05.282Z,99.90
2023-02-14T05:23:32.533Z,99.90
2023-02-14T05:25:59.702Z,99.90
2023-02-14T05:28:26.811Z,99.90
2023-02-14T05:30:54.550Z,99.90
2023-02-14T05:33:21.638Z,99.90
2023-02-14T05:35:49.071Z,99.90
2023-02-14T05:38:16.129Z,99.90
2023-02-14T05:40:43.743Z,99.90
2023-02-14T05:43:11.191Z,99.90
2023-02-14T05:45:38.567Z,99.90
2023-02-14T05:48:06.375Z,99.90
2023-02-14T05:50:33.731Z,99.90
2023-02-14T05:53:01.198Z,99.90
2023-02-14T05:55:28.830Z,99.90
2023-02-14T05:57:56.006Z,99.90
2023-02-14T06:00:24.508Z,99.90
2023-02-14T06:02:51.666Z,99.90
2023-02-14T06:05:20.347Z,99.90
2023-02-14T06:07:51.017Z,99.90
2023-02-14T06:10:18.746Z,99.90
2023-02-14T06:12:46.469Z,99.90
2023-02-14T06:15:16.584Z,99.90
2023-02-14T06:17:43.905Z,99.90
2023-02-14T06:20:11.397Z,99.90
2023-02-14T06:22:39.253Z,99.90
2023-02-14T06:25:06.568Z,99.90
2023-02-14T06:27:33.871Z,99.90
2023-02-14T06:30:01.197Z,99.90
2023-02-14T06:32:28.373Z,99.90
2023-02-14T06:34:56.624Z,99.90
2023-02-14T06:37:23.817Z,99.90
2023-02-14T06:39:50.969Z,99.90
2023-02-14T06:42:20.276Z,99.90
2023-02-14T06:44:47.376Z,99.90
2023-02-14T06:47:14.780Z,99.90
2023-02-14T06:49:41.887Z,99.90
2023-02-14T06:52:09.008Z,99.90
2023-02-14T06:54:36.361Z,99.90
2023-02-14T06:57:03.612Z,99.90
2023-02-14T06:59:30.950Z,99.90
2023-02-14T07:01:58.065Z,99.90
2023-02-14T07:04:25.382Z,99.90
2023-02-14T07:06:52.995Z,99.90
2023-02-14T07:09:20.231Z,99.90
2023-02-14T07:11:47.422Z,99.90
2023-02-14T07:14:14.828Z,99.90
2023-02-14T07:16:42.126Z,99.90
2023-02-14T07:19:09.382Z,99.90
2023-02-14T07:21:36.708Z,99.90
2023-02-14T07:24:03.816Z,99.90
2023-02-14T07:26:31.164Z,99.90
2023-02-14T07:28:58.337Z,99.90
2023-02-14T07:31:25.769Z,99.90
2023-02-14T07:33:53.249Z,99.90
2023-02-14T07:36:20.552Z,99.90
2023-02-14T07:38:47.739Z,99.90
2023-02-14T07:41:14.905Z,99.90
2023-02-14T07:43:42.003Z,99.90
2023-02-14T07:46:09.325Z,99.90
2023-02-14T07:48:36.516Z,99.90
2023-02-14T07:51:04.071Z,99.90
2023-02-14T07:53:31.316Z,99.90
2023-02-14T07:55:58.469Z,99.20
2023-02-14T07:58:25.729Z,98.40
2023-02-14T08:00:52.866Z,97.20
2023-02-14T08:03:20.317Z,95.70
2023-02-14T08:05:57.344Z,95.20
2023-02-14T08:08:29.485Z,94.70
2023-02-14T08:10:57.255Z,93.30
2023-02-14T08:13:24.558Z,92.60
2023-02-14T08:16:07.742Z,91.50
2023-02-14T08:18:35.018Z,90.60
2023-02-14T08:21:02.596Z,90.30
2023-02-14T08:23:29.874Z,89.80
2023-02-14T08:25:57.331Z,87.90
2023-02-14T08:28:25.147Z,86.10
2023-02-14T08:30:53.121Z,85.50
2023-02-14T08:33:20.747Z,84.90
2023-02-14T08:35:47.990Z,83.60
2023-02-14T08:38:15.149Z,82.90
2023-02-14T08:40:42.693Z,79.50
2023-02-14T08:43:09.913Z,78.40
2023-02-14T08:45:37.563Z,77.20
2023-02-14T08:48:06.061Z,74.20
2023-02-14T08:50:33.398Z,73.60
2023-02-14T08:53:00.717Z,70.50
2023-02-14T08:55:27.939Z,69.00
2023-02-14T08:57:56.884Z,67.50
2023-02-14T09:00:24.164Z,64.10
2023-02-14T09:02:52.775Z,59.70
2023-02-14T09:05:21.434Z,57.60
2023-02-14T09:07:48.606Z,56.90
2023-02-14T09:10:17.144Z,56.60
2023-02-14T09:12:44.584Z,55.00
2023-02-14T09:15:11.688Z,54.70
2023-02-14T09:17:39.323Z,53.20
2023-02-14T09:20:07.619Z,51.40
2023-02-14T09:22:34.995Z,50.80
2023-02-14T09:25:02.666Z,49.80
2023-02-14T09:27:30.519Z,48.10
2023-02-14T09:29:57.784Z,47.70
2023-02-14T09:32:26.653Z,47.60
2023-02-14T09:34:54.117Z,46.40
2023-02-14T09:37:40.055Z,46.90
2023-02-14T09:40:07.619Z,43.90
2023-02-14T09:42:41.725Z,44.80
2023-02-14T09:45:13.770Z,44.60
2023-02-14T09:47:41.035Z,43.40
2023-02-14T09:50:25.927Z,42.30
2023-02-14T09:52:56.435Z,43.30
2023-02-14T09:55:26.477Z,43.20
2023-02-14T09:57:53.581Z,40.60
2023-02-14T10:00:30.578Z,41.60
2023-02-14T10:03:00.729Z,40.20
2023-02-14T10:05:32.719Z,40.50
2023-02-14T10:08:09.238Z,39.30
2023-02-14T10:11:02.963Z,38.60
2023-02-14T10:13:33.730Z,39.20
2023-02-14T10:16:08.785Z,40.00
2023-02-14T10:18:59.348Z,38.50
2023-02-14T10:21:32.619Z,37.80
2023-02-14T10:24:21.373Z,37.60
2023-02-14T10:26:49.760Z,37.60
2023-02-14T10:29:18.124Z,38.20
2023-02-14T10:31:55.793Z,37.50
2023-02-14T10:34:26.204Z,38.40
2023-02-14T10:36:53.423Z,37.70
2023-02-14T10:39:20.632Z,36.10
2023-02-14T10:41:58.087Z,36.40
2023-02-14T10:44:28.551Z,37.30
2023-02-14T10:47:04.989Z,36.40
2023-02-14T10:49:38.119Z,36.90
2023-02-14T10:52:14.481Z,36.80
2023-02-14T10:54:51.406Z,37.70
2023-02-14T10:57:41.261Z,37.40
2023-02-14T11:00:17.879Z,37.50
2023-02-14T11:02:46.715Z,36.90
2023-02-14T11:05:40.488Z,38.30
2023-02-14T11:08:14.265Z,37.50
2023-02-14T11:10:41.627Z,38.80
2023-02-14T11:13:28.793Z,37.40
2023-02-14T11:15:59.763Z,39.10
2023-02-14T11:18:33.163Z,39.50
2023-02-14T11:21:05.323Z,39.50
2023-02-14T11:23:34.473Z,38.00
2023-02-14T11:26:02.405Z,39.30
2023-02-14T11:28:29.877Z,39.10
2023-02-14T11:30:57.536Z,39.40
2023-02-14T11:33:41.423Z,39.90
2023-02-14T11:36:13.645Z,42.60
2023-02-14T11:38:41.567Z,44.60
2023-02-14T11:41:11.105Z,48.00
2023-02-14T11:43:38.426Z,50.40
2023-02-14T11:46:21.270Z,52.10
2023-02-14T11:49:00.078Z,53.70
2023-02-14T11:51:33.472Z,55.10
2023-02-14T11:54:04.992Z,56.80
2023-02-14T11:56:50.019Z,57.60
2023-02-14T11:59:26.355Z,59.80
2023-02-14T12:01:54.576Z,59.50
2023-02-14T12:04:24.242Z,60.10
2023-02-14T12:06:51.536Z,61.30
2023-02-14T12:09:25.288Z,60.60
2023-02-14T12:11:59.496Z,60.20
2023-02-14T12:14:31.088Z,60.30
2023-02-14T12:17:19.124Z,61.00
2023-02-14T12:19:46.450Z,61.10
2023-02-14T12:22:17.097Z,61.20
2023-02-14T12:24:50.401Z,61.10
2023-02-14T12:27:17.856Z,62.60
2023-02-14T12:29:45.141Z,63.50
2023-02-14T12:32:18.525Z,63.80
2023-02-14T12:34:48.352Z,64.30
2023-02-14T12:37:35.711Z,64.90
2023-02-14T12:40:02.982Z,67.10
2023-02-14T12:42:34.682Z,68.10
2023-02-14T12:45:05.055Z,69.60
2023-02-14T12:47:35.621Z,69.30
2023-02-14T12:50:18.941Z,68.90
2023-02-14T12:52:48.777Z,70.20
2023-02-14T12:55:39.569Z,71.30
2023-02-14T12:58:10.331Z,71.00
2023-02-14T13:01:04.277Z,71.00
2023-02-14T13:03:38.488Z,70.90
2023-02-14T13:06:18.410Z,70.70
2023-02-14T13:08:52.066Z,72.50
2023-02-14T13:11:34.127Z,72.80
2023-02-14T13:14:10.689Z,74.10
2023-02-14T13:16:37.997Z,74.50
2023-02-14T13:19:05.334Z,73.30
2023-02-14T13:21:34.457Z,74.10
2023-02-14T13:24:28.390Z,73.50
2023-02-14T13:27:00.049Z,73.40
2023-02-14T13:29:53.897Z,74.20
2023-02-14T13:32:22.908Z,74.80
2023-02-14T13:34:50.922Z,74.70
2023-02-14T13:37:19.719Z,75.10
2023-02-14T13:40:16.466Z,75.30
2023-02-14T13:42:52.976Z,75.60
2023-02-14T13:45:35.610Z,75.70
2023-02-14T13:48:02.940Z,75.30
2023-02-14T13:50:30.355Z,76.70
2023-02-14T13:52:57.613Z,75.90
2023-02-14T13:55:28.650Z,75.60
2023-02-14T13:58:03.697Z,75.70
2023-02-14T14:00:41.098Z,76.60
2023-02-14T14:03:13.815Z,76.80
2023-02-14T14:05:44.450Z,77.00
2023-02-14T14:08:18.064Z,76.30
2023-02-14T14:10:46.825Z,76.30
2023-02-14T14:13:34.486Z,76.40
2023-02-14T14:16:21.577Z,76.10
2023-02-14T14:18:50.887Z,77.60
2023-02-14T14:21:27.613Z,77.80
2023-02-14T14:24:14.018Z,77.70
2023-02-14T14:26:43.206Z,77.50
2023-02-14T14:29:16.725Z,78.70
2023-02-14T14:31:44.150Z,78.60
2023-02-14T14:34:16.997Z,79.20
2023-02-14T14:36:44.304Z,79.70
2023-02-14T14:39:11.782Z,80.50
2023-02-14T14:41:39.634Z,80.00
2023-02-14T14:44:07.169Z,81.20
2023-02-14T14:46:34.470Z,81.20
2023-02-14T14:49:02.657Z,80.90
2023-02-14T14:51:34.747Z,81.30
2023-02-14T14:54:06.099Z,80.60
2023-02-14T14:56:35.679Z,81.10
2023-02-14T14:59:18.612Z,81.40
2023-02-14T15:01:46.312Z,83.90
2023-02-14T15:04:18.593Z,83.00
2023-02-14T15:06:47.682Z,82.60
2023-02-14T15:09:35.929Z,82.00
2023-02-14T15:12:22.924Z,81.90
2023-02-14T15:14:55.005Z,82.30
2023-02-14T15:17:25.718Z,82.80
2023-02-14T15:20:03.199Z,82.70
2023-02-14T15:22:34.529Z,83.30
2023-02-14T15:25:07.926Z,82.90
2023-02-14T15:27:39.519Z,83.10
2023-02-14T15:30:10.050Z,83.30
2023-02-14T15:32:38.442Z,83.30
2023-02-14T15:35:07.145Z,83.70
2023-02-14T15:37:34.928Z,84.00
2023-02-14T15:40:02.369Z,84.60
2023-02-14T15:42:33.120Z,85.10
2023-02-14T15:45:19.526Z,84.80
2023-02-14T15:47:48.148Z,84.60
2023-02-14T15:50:17.144Z,84.80
2023-02-14T15:52:45.760Z,85.10
2023-02-14T15:55:16.252Z,85.90
2023-02-14T15:57:45.575Z,86.00
2023-02-14T16:00:17.606Z,86.60
2023-02-14T16:02:48.180Z,86.90
2023-02-14T16:05:24.400Z,87.20
2023-02-14T16:07:58.268Z,87.30
2023-02-14T16:10:27.289Z,87.60
2023-02-14T16:13:00.170Z,88.30
2023-02-14T16:15:31.684Z,88.70
2023-02-14T16:18:00.348Z,88.90
2023-02-14T16:20:41.257Z,89.40
2023-02-14T16:23:28.556Z,90.10
2023-02-14T16:25:59.263Z,89.70
2023-02-14T16:28:30.805Z,90.10
2023-02-14T16:30:59.352Z,90.40
2023-02-14T16:33:29.956Z,90.50
2023-02-14T16:36:02.117Z,90.70
2023-02-14T16:38:29.649Z,91.00
2023-02-14T16:40:57.123Z,91.00
2023-02-14T16:43:24.689Z,91.40
2023-02-14T16:45:52.636Z,91.70
2023-02-14T16:48:20.493Z,91.90
2023-02-14T16:50:48.257Z,92.20
2023-02-14T16:53:25.012Z,92.40
2023-02-14T16:55:53.568Z,92.40
2023-02-14T16:58:23.524Z,92.80
2023-02-14T17:00:51.244Z,93.20
2023-02-14T17:03:19.345Z,93.20
2023-02-14T17:05:47.120Z,93.20
2023-02-14T17:08:16.312Z,93.50
2023-02-14T17:10:45.218Z,93.90
2023-02-14T17:13:12.969Z,94.20
2023-02-14T17:15:41.164Z,94.30
2023-02-14T17:18:11.586Z,94.90
2023-02-14T17:20:40.089Z,95.10
2023-02-14T17:23:08.335Z,95.20
2023-02-14T17:25:36.417Z,95.50
2023-02-14T17:28:04.113Z,95.90
2023-02-14T17:30:33.252Z,96.50
2023-02-14T17:33:01.195Z,96.40
2023-02-14T17:35:28.879Z,97.70
2023-02-14T17:37:56.910Z,97.30
2023-02-14T17:40:25.052Z,97.40
2023-02-14T17:42:53.095Z,97.80
2023-02-14T17:45:20.876Z,98.70
2023-02-14T17:47:49.292Z,98.70
2023-02-14T17:50:18.415Z,98.90
2023-02-14T17:52:46.282Z,99.10
2023-02-14T17:55:15.379Z,99.70
2023-02-14T17:57:43.880Z,99.30
2023-02-14T18:00:13.238Z,99.80
2023-02-14T18:02:43.960Z,99.90
2023-02-14T18:05:13.022Z,99.90
2023-02-14T18:07:41.223Z,99.90
2023-02-14T18:10:09.697Z,99.90
2023-02-14T18:12:40.188Z,99.90
2023-02-14T18:15:08.377Z,99.90
2023-02-14T18:17:36.684Z,99.90
2023-02-14T18:20:06.034Z,99.90
2023-02-14T18:22:35.812Z,99.90
2023-02-14T18:25:04.001Z,99.90
2023-02-14T18:27:32.853Z,99.90
2023-02-14T18:30:01.275Z,99.90
2023-02-14T18:32:29.650Z,99.90
2023-02-14T18:34:57.742Z,99.90
2023-02-14T18:37:25.636Z,99.90
2023-02-14T18:39:55.463Z,99.90
2023-02-14T18:42:24.035Z,99.90
2023-02-14T18:44:52.168Z,99.90
2023-02-14T18:47:20.576Z,99.90
2023-02-14T18:49:49.662Z,99.90
2023-02-14T18:52:17.967Z,99.90
2023-02-14T18:54:49.457Z,99.90
2023-02-14T18:57:21.281Z,99.90
2023-02-14T18:59:51.151Z,99.90
2023-02-14T19:02:19.509Z,99.90
2023-02-14T19:04:47.666Z,99.90
2023-02-14T19:07:15.702Z,99.90
2023-02-14T19:09:44.206Z,99.90
2023-02-14T19:12:12.948Z,99.90
2023-02-14T19:14:41.645Z,99.90
2023-02-14T19:17:10.365Z,99.90
2023-02-14T19:19:39.161Z,99.90
2023-02-14T19:22:07.304Z,99.90
2023-02-14T19:24:37.170Z,99.90
2023-02-14T19:27:05.918Z,99.90
2023-02-14T19:29:35.263Z,99.90
2023-02-14T19:32:04.874Z,99.90
2023-02-14T19:34:34.044Z,99.90
2023-02-14T19:37:04.120Z,99.90
2023-02-14T19:39:32.424Z,99.90
2023-02-14T19:42:03.941Z,99.90
2023-02-14T19:44:33.351Z,99.90
2023-02-14T19:47:09.779Z,99.90
2023-02-14T19:49:46.081Z,99.90
2023-02-14T19:52:26.474Z,99.90
2023-02-14T19:54:56.702Z,99.90
2023-02-14T19:57:25.805Z,99.90
2023-02-14T19:59:54.263Z,99.90
2023-02-14T20:02:25.708Z,99.90
2023-02-14T20:04:55.353Z,99.90
2023-02-14T20:07:25.961Z,99.90
2023-02-14T20:09:56.412Z,99.90
2023-02-14T20:12:26.610Z,99.90
2023-02-14T20:14:55.442Z,99.90
2023-02-14T20:17:23.824Z,99.90
2023-02-14T20:19:56.027Z,99.90
2023-02-14T20:22:25.245Z,99.90
2023-02-14T20:24:53.810Z,99.90
2023-02-14T20:27:25.459Z,99.90
2023-02-14T20:29:57.470Z,99.90
2023-02-14T20:32:29.157Z,99.90
2023-02-14T20:34:58.034Z,99.90
2023-02-14T20:37:28.114Z,99.90
2023-02-14T20:39:56.683Z,99.90
2023-02-14T20:42:26.415Z,99.90
2023-02-14T20:44:54.907Z,99.90
2023-02-14T20:47:23.401Z,99.90
2023-02-14T20:49:51.829Z,99.90
2023-02-14T20:52:20.460Z,99.90
2023-02-14T20:54:51.863Z,99.90
2023-02-14T20:57:20.785Z,99.90
2023-02-14T20:59:49.338Z,99.90
2023-02-14T21:02:20.586Z,99.90
2023-02-14T21:04:48.959Z,99.90
2023-02-14T21:07:19.209Z,99.90
2023-02-14T21:09:47.453Z,99.90
2023-02-14T21:12:16.769Z,99.90
2023-02-14T21:14:45.324Z,99.90
2023-02-14T21:17:14.699Z,99.90
2023-02-14T21:19:43.416Z,99.90
2023-02-14T21:22:12.077Z,99.90
2023-02-14T21:24:41.224Z,99.90
2023-02-14T21:27:09.828Z,99.90
2023-02-14T21:29:38.662Z,99.90
2023-02-14T21:32:08.152Z,99.90
2023-02-14T21:34:37.194Z,99.90
2023-02-14T21:37:07.853Z,99.90
2023-02-14T21:39:36.607Z,99.90
2023-02-14T21:42:05.828Z,99.90
2023-02-14T21:44:52.804Z,99.90
2023-02-14T21:47:21.266Z,99.90
2023-02-14T21:50:09.248Z,99.90
2023-02-14T21:52:37.372Z,99.90
2023-02-14T21:55:05.915Z,99.90
2023-02-14T21:57:34.361Z,99.90
2023-02-14T22:00:02.843Z,99.90
2023-02-14T22:02:40.113Z,99.90
2023-02-14T22:05:08.430Z,99.90
2023-02-14T22:07:35.808Z,99.90
2023-02-14T22:10:04.327Z,99.90
2023-02-14T22:12:32.152Z,99.90
2023-02-14T22:15:01.762Z,99.90
2023-02-14T22:17:29.369Z,99.90
2023-02-14T22:19:56.738Z,99.90
2023-02-14T22:22:24.144Z,99.90
2023-02-14T22:24:51.531Z,99.90
2023-02-14T22:27:19.440Z,99.90
2023-02-14T22:29:46.719Z,99.90
2023-02-14T22:32:14.186Z,99.90
2023-02-14T22:34:41.684Z,99.90
2023-02-14T22:37:09.129Z,99.90
2023-02-14T22:39:36.426Z,99.90
2023-02-14T22:42:06.988Z,99.90
2023-02-14T22:44:34.233Z,99.90
2023-02-14T22:47:01.652Z,99.90
2023-02-14T22:49:28.932Z,99.90
2023-02-14T22:51:56.246Z,99.90
2023-02-14T22:54:23.505Z,99.90
2023-02-14T22:56:53.618Z,99.90
2023-02-14T22:59:22.358Z,99.90
2023-02-14T23:01:51.161Z,99.90
2023-02-14T23:04:19.362Z,99.90
2023-02-14T23:06:46.851Z,99.90
2023-02-14T23:09:14.957Z,99.90
2023-02-14T23:11:52.185Z,99.90
2023-02-14T23:14:38.614Z,99.90
2023-02-14T23:17:15.419Z,99.90
2023-02-14T23:20:02.051Z,99.90
2023-02-14T23:22:30.930Z,99.90
2023-02-14T23:24:59.051Z,99.90
2023-02-14T23:27:30.765Z,99.90
2023-02-14T23:29:58.279Z,99.90
2023-02-14T23:32:25.837Z,99.90
2023-02-14T23:34:53.139Z,99.90
2023-02-14T23:37:20.646Z,99.90
2023-02-14T23:39:47.842Z,99.90
2023-02-14T23:42:16.292Z,99.90
2023-02-14T23:44:44.355Z,99.90
2023-02-14T23:47:12.659Z,99.90
2023-02-14T23:49:40.444Z,99.90
2023-02-14T23:52:08.892Z,99.90
2023-02-14T23:54:36.708Z,99.90
2023-02-14T23:57:04.409Z,99.90
2023-02-14T23:59:32.076Z,99.90
